createdAt,value
2023-01-17T00:02:05.930Z,96844.94
2023-01-17T00:04:52.192Z,96848.41
2023-01-17T00:07:38.649Z,96841.19
2023-01-17T00:10:10.568Z,96820.97
2023-01-17T00:12:37.853Z,96830.59
2023-01-17T00:15:05.581Z,96815.75
2023-01-17T00:17:33.016Z,96826.16
2023-01-17T00:20:20.222Z,96835.72
2023-01-17T00:23:23.092Z,96835.31
2023-01-17T00:26:05.569Z,96826.03
2023-01-17T00:28:34.136Z,96830.63
2023-01-17T00:31:01.377Z,96828.88
2023-01-17T00:33:28.544Z,96824.47
2023-01-17T00:35:56.647Z,96819.69
2023-01-17T00:38:24.961Z,96831.34
2023-01-17T00:40:52.188Z,96824.19
2023-01-17T00:43:38.766Z,96817.34
2023-01-17T00:46:24.867Z,96820.97
2023-01-17T00:49:11.192Z,96810.31
2023-01-17T00:51:56.780Z,96811.53
2023-01-17T00:54:43.048Z,96815.66
2023-01-17T00:57:28.745Z,96813.53
2023-01-17T01:00:14.922Z,96817.34
2023-01-17T01:03:00.680Z,96822.72
2023-01-17T01:05:46.761Z,96816.50
2023-01-17T01:08:35.754Z,96814.63
2023-01-17T01:11:32.574Z,96806.59
2023-01-17T01:14:19.534Z,96820.78
2023-01-17T01:17:05.680Z,96821.97
2023-01-17T01:19:51.705Z,96831.94
2023-01-17T01:22:38.125Z,96834.31
2023-01-17T01:25:24.332Z,96838.37
2023-01-17T01:28:10.562Z,96838.84
2023-01-17T01:30:56.636Z,96846.66
2023-01-17T01:33:24.015Z,96843.38
2023-01-17T01:35:54.439Z,96847.09
2023-01-17T01:38:24.902Z,96852.97
2023-01-17T01:40:53.418Z,96851.16
2023-01-17T01:43:40.822Z,96848.72
2023-01-17T01:46:08.248Z,96842.62
2023-01-17T01:48:35.985Z,96835.44
2023-01-17T01:51:04.240Z,96822.87
2023-01-17T01:53:32.355Z,96808.59
2023-01-17T01:55:59.533Z,96801.84
2023-01-17T01:58:27.920Z,96801.63
2023-01-17T02:00:55.417Z,96802.56
2023-01-17T02:03:24.622Z,96788.41
2023-01-17T02:05:51.871Z,96787.97
2023-01-17T02:08:19.952Z,96783.34
2023-01-17T02:10:47.665Z,96793.38
2023-01-17T02:13:16.177Z,96801.66
2023-01-17T02:15:49.305Z,96797.38
2023-01-17T02:18:21.687Z,96806.06
2023-01-17T02:21:12.200Z,96795.66
2023-01-17T02:23:48.887Z,96790.66
2023-01-17T02:26:35.390Z,96804.56
2023-01-17T02:29:18.700Z,96799.87
2023-01-17T02:31:47.341Z,96800.16
2023-01-17T02:34:17.394Z,96791.94
2023-01-17T02:37:04.951Z,96797.13
2023-01-17T02:39:40.255Z,96786.47
2023-01-17T02:42:09.031Z,96785.09
2023-01-17T02:44:40.084Z,96780.38
2023-01-17T02:47:22.970Z,96765.97
2023-01-17T02:49:51.000Z,96760.75
2023-01-17T02:52:18.115Z,96742.25
2023-01-17T02:55:03.479Z,96743.22
2023-01-17T02:57:44.446Z,96734.84
2023-01-17T03:00:22.454Z,96726.25
2023-01-17T03:02:55.087Z,96727.59
2023-01-17T03:05:24.193Z,96723.37
2023-01-17T03:07:51.801Z,96716.13
2023-01-17T03:10:19.352Z,96712.72
2023-01-17T03:12:46.490Z,96718.63
2023-01-17T03:15:14.728Z,96707.44
2023-01-17T03:17:42.977Z,96710.59
2023-01-17T03:20:10.449Z,96704.88
2023-01-17T03:22:37.850Z,96707.50
2023-01-17T03:25:05.596Z,96700.87
2023-01-17T03:27:32.747Z,96704.44
2023-01-17T03:30:00.195Z,96690.63
2023-01-17T03:32:27.559Z,96682.62
2023-01-17T03:34:54.709Z,96681.50
2023-01-17T03:37:22.139Z,96682.78
2023-01-17T03:39:49.300Z,96673.00
2023-01-17T03:42:19.156Z,96675.91
2023-01-17T03:44:46.583Z,96666.44
2023-01-17T03:47:13.725Z,96671.72
2023-01-17T03:49:40.904Z,96664.34
2023-01-17T03:52:08.340Z,96668.38
2023-01-17T03:54:35.534Z,96659.53
2023-01-17T03:57:02.681Z,96661.56
2023-01-17T03:59:30.100Z,96665.53
2023-01-17T04:01:57.255Z,96665.16
2023-01-17T04:04:24.762Z,96663.59
2023-01-17T04:06:51.917Z,96661.56
2023-01-17T04:09:19.384Z,96655.59
2023-01-17T04:11:50.858Z,96657.22
2023-01-17T04:14:18.189Z,96657.06
2023-01-17T04:16:45.410Z,96653.34
2023-01-17T04:19:12.908Z,96652.59
2023-01-17T04:21:40.068Z,96663.37
2023-01-17T04:24:07.423Z,96669.59
2023-01-17T04:26:34.869Z,96656.25
2023-01-17T04:29:02.005Z,96665.69
2023-01-17T04:31:29.193Z,96664.47
2023-01-17T04:33:56.664Z,96672.41
2023-01-17T04:36:23.791Z,96664.53
2023-01-17T04:38:50.938Z,96666.81
2023-01-17T04:41:18.379Z,96666.66
2023-01-17T04:43:45.526Z,96667.91
2023-01-17T04:46:12.809Z,96661.84
2023-01-17T04:48:40.403Z,96663.88
2023-01-17T04:51:07.586Z,96663.13
2023-01-17T04:53:34.755Z,96665.50
2023-01-17T04:56:02.230Z,96671.84
2023-01-17T04:58:29.409Z,96672.91
2023-01-17T05:01:00.551Z,96667.81
2023-01-17T05:03:29.488Z,96667.56
2023-01-17T05:05:56.672Z,96661.75
2023-01-17T05:08:23.920Z,96669.31
2023-01-17T05:10:51.335Z,96660.97
2023-01-17T05:13:18.592Z,96670.16
2023-01-17T05:15:46.973Z,96669.59
2023-01-17T05:18:15.180Z,96664.41
2023-01-17T05:20:42.530Z,96668.38
2023-01-17T05:23:09.764Z,96662.72
2023-01-17T05:25:37.189Z,96677.06
2023-01-17T05:28:04.487Z,96676.28
2023-01-17T05:30:32.296Z,96674.84
2023-01-17T05:32:59.781Z,96674.28
2023-01-17T05:35:28.587Z,96678.41
2023-01-17T05:37:56.037Z,96688.22
2023-01-17T05:40:24.827Z,96686.88
2023-01-17T05:42:52.708Z,96688.50
2023-01-17T05:45:20.413Z,96688.62
2023-01-17T05:47:48.868Z,96699.72
2023-01-17T05:50:17.421Z,96703.72
2023-01-17T05:52:54.852Z,96709.94
2023-01-17T05:55:22.522Z,96714.97
2023-01-17T05:57:50.284Z,96721.78
2023-01-17T06:00:17.626Z,96727.84
2023-01-17T06:02:45.426Z,96740.00
2023-01-17T06:05:12.764Z,96737.34
2023-01-17T06:07:39.903Z,96735.31
2023-01-17T06:10:07.489Z,96736.75
2023-01-17T06:12:34.632Z,96744.59
2023-01-17T06:15:01.785Z,96743.56
2023-01-17T06:17:29.199Z,96746.03
2023-01-17T06:19:56.373Z,96740.91
2023-01-17T06:22:23.529Z,96751.91
2023-01-17T06:24:50.976Z,96750.47
2023-01-17T06:27:18.167Z,96754.63
2023-01-17T06:29:45.301Z,96752.38
2023-01-17T06:32:14.165Z,96760.34
2023-01-17T06:34:41.411Z,96765.25
2023-01-17T06:37:08.563Z,96775.06
2023-01-17T06:39:35.958Z,96782.84
2023-01-17T06:42:03.208Z,96782.19
2023-01-17T06:44:30.363Z,96793.13
2023-01-17T06:46:57.830Z,96789.16
2023-01-17T06:49:25.510Z,96804.31
2023-01-17T06:51:52.628Z,96806.25
2023-01-17T06:54:20.072Z,96812.88
2023-01-17T06:56:47.197Z,96810.81
2023-01-17T06:59:14.341Z,96816.63
2023-01-17T07:01:41.963Z,96823.50
2023-01-17T07:04:09.280Z,96823.44
2023-01-17T07:06:36.941Z,96826.59
2023-01-17T07:09:04.458Z,96833.97
2023-01-17T07:11:31.704Z,96831.84
2023-01-17T07:13:58.871Z,96832.59
2023-01-17T07:16:26.384Z,96838.37
2023-01-17T07:18:54.831Z,96845.09
2023-01-17T07:21:22.634Z,96846.66
2023-01-17T07:23:50.135Z,96853.56
2023-01-17T07:26:17.410Z,96859.03
2023-01-17T07:28:44.563Z,96869.56
2023-01-17T07:31:12.163Z,96866.88
2023-01-17T07:33:39.333Z,96872.97
2023-01-17T07:36:07.470Z,96875.91
2023-01-17T07:38:35.177Z,96887.25
2023-01-17T07:41:02.459Z,96893.75
2023-01-17T07:43:29.615Z,96897.09
2023-01-17T07:45:57.294Z,96908.63
2023-01-17T07:48:24.617Z,96929.31
2023-01-17T07:50:55.477Z,96931.50
2023-01-17T07:53:23.702Z,96923.41
2023-01-17T07:55:51.796Z,96922.31
2023-01-17T07:58:19.197Z,96932.59
2023-01-17T08:00:46.822Z,96941.91
2023-01-17T08:03:15.350Z,96927.69
2023-01-17T08:05:42.988Z,96934.09
2023-01-17T08:08:10.210Z,96933.41
2023-01-17T08:10:37.658Z,96938.31
2023-01-17T08:13:04.911Z,96932.56
2023-01-17T08:15:32.311Z,96941.06
2023-01-17T08:18:00.210Z,96962.88
2023-01-17T08:20:28.126Z,96957.00
2023-01-17T08:22:56.200Z,96962.78
2023-01-17T08:25:24.206Z,96962.88
2023-01-17T08:27:51.896Z,96957.09
2023-01-17T08:30:19.023Z,96967.19
2023-01-17T08:32:46.464Z,96983.41
2023-01-17T08:35:14.167Z,96988.00
2023-01-17T08:37:41.861Z,96978.53
2023-01-17T08:40:11.060Z,96977.56
2023-01-17T08:42:39.368Z,96975.81
2023-01-17T08:45:07.291Z,96983.88
2023-01-17T08:47:34.766Z,96995.59
2023-01-17T08:50:02.329Z,96991.75
2023-01-17T08:52:29.508Z,96982.44
2023-01-17T08:54:56.979Z,96987.44
2023-01-17T08:57:24.122Z,96980.16
2023-01-17T08:59:51.299Z,96973.84
2023-01-17T09:02:19.423Z,96971.41
2023-01-17T09:04:46.929Z,96973.00
2023-01-17T09:07:14.590Z,96973.66
2023-01-17T09:09:42.076Z,96978.53
2023-01-17T09:12:09.247Z,96993.75
2023-01-17T09:14:37.502Z,96992.47
2023-01-17T09:17:06.848Z,97003.84
2023-01-17T09:19:35.484Z,97001.28
2023-01-17T09:22:04.349Z,97010.66
2023-01-17T09:24:32.781Z,96999.66
2023-01-17T09:27:00.220Z,96998.69
2023-01-17T09:29:27.624Z,97006.31
2023-01-17T09:31:55.053Z,97001.38
2023-01-17T09:34:24.193Z,97025.22
2023-01-17T09:36:51.368Z,97026.56
2023-01-17T09:39:18.883Z,97022.66
2023-01-17T09:41:51.845Z,97035.94
2023-01-17T09:44:29.425Z,97042.44
2023-01-17T09:46:58.149Z,97040.28
2023-01-17T09:49:38.089Z,97039.25
2023-01-17T09:52:05.574Z,97041.91
2023-01-17T09:54:34.410Z,97045.28
2023-01-17T09:57:09.169Z,97048.22
2023-01-17T09:59:45.621Z,97054.47
2023-01-17T10:02:31.478Z,97065.16
2023-01-17T10:05:02.006Z,97067.31
2023-01-17T10:07:52.284Z,97074.41
2023-01-17T10:10:49.000Z,97071.03
2023-01-17T10:13:18.947Z,97076.44
2023-01-17T10:16:05.400Z,97073.06
2023-01-17T10:18:47.602Z,97069.66
2023-01-17T10:21:15.055Z,97067.41
2023-01-17T10:23:55.623Z,97063.31
2023-01-17T10:26:26.299Z,97073.28
2023-01-17T10:28:54.672Z,97064.94
2023-01-17T10:31:25.778Z,97073.69
2023-01-17T10:33:54.082Z,97067.06
2023-01-17T10:36:22.376Z,97049.78
2023-01-17T10:38:51.226Z,97051.00
2023-01-17T10:41:21.704Z,97041.88
2023-01-17T10:43:52.611Z,97042.22
2023-01-17T10:46:21.644Z,97029.97
2023-01-17T10:48:49.764Z,97032.38
2023-01-17T10:51:35.118Z,97024.22
2023-01-17T10:54:08.777Z,97033.72
2023-01-17T10:56:35.929Z,97029.34
2023-01-17T10:59:09.418Z,97024.75
2023-01-17T11:01:36.636Z,97009.69
2023-01-17T11:04:04.156Z,97005.44
2023-01-17T11:06:33.243Z,97014.53
2023-01-17T11:09:02.107Z,97000.56
2023-01-17T11:11:31.881Z,96989.03
2023-01-17T11:14:05.580Z,97006.06
2023-01-17T11:16:33.007Z,96999.19
2023-01-17T11:19:05.818Z,96998.28
2023-01-17T11:21:33.322Z,96983.97
2023-01-17T11:24:08.006Z,96975.28
2023-01-17T11:26:35.531Z,96980.56
2023-01-17T11:29:15.283Z,96982.56
2023-01-17T11:31:42.738Z,96972.41
2023-01-17T11:34:17.291Z,96965.47
2023-01-17T11:36:44.836Z,96962.03
2023-01-17T11:39:18.043Z,96953.44
2023-01-17T11:41:46.123Z,96951.41
2023-01-17T11:44:22.588Z,96949.41
2023-01-17T11:47:02.501Z,96957.97
2023-01-17T11:49:29.685Z,96966.72
2023-01-17T11:51:57.156Z,96974.31
2023-01-17T11:54:24.271Z,96970.81
2023-01-17T11:56:56.776Z,96976.66
2023-01-17T11:59:34.829Z,96985.56
2023-01-17T12:02:20.765Z,96985.56
2023-01-17T12:05:00.415Z,96985.13
2023-01-17T12:07:38.272Z,96986.41
2023-01-17T12:10:18.009Z,96993.62
2023-01-17T12:13:04.165Z,96982.72
2023-01-17T12:15:51.866Z,96986.09
2023-01-17T12:18:51.519Z,96986.50
2023-01-17T12:21:22.379Z,96993.25
2023-01-17T12:24:08.383Z,96984.25
2023-01-17T12:26:49.902Z,96983.03
2023-01-17T12:29:29.231Z,96977.66
2023-01-17T12:31:59.604Z,96979.75
2023-01-17T12:34:29.742Z,96976.34
2023-01-17T12:37:00.381Z,96975.69
2023-01-17T12:39:31.289Z,96978.44
2023-01-17T12:42:02.739Z,96978.31
2023-01-17T12:44:33.651Z,96972.12
2023-01-17T12:47:02.336Z,96970.38
2023-01-17T12:49:48.392Z,96964.84
2023-01-17T12:52:28.022Z,96956.72
2023-01-17T12:54:56.242Z,96961.03
2023-01-17T12:57:28.923Z,96959.41
2023-01-17T12:59:56.088Z,96969.28
2023-01-17T13:02:31.890Z,96968.66
2023-01-17T13:05:01.161Z,96965.81
2023-01-17T13:07:28.855Z,96956.12
2023-01-17T13:09:59.195Z,96965.69
2023-01-17T13:12:26.642Z,96960.03
2023-01-17T13:14:54.081Z,96967.81
2023-01-17T13:17:26.239Z,96967.09
2023-01-17T13:19:56.923Z,96974.16
2023-01-17T13:22:27.082Z,96980.84
2023-01-17T13:25:00.573Z,96983.59
2023-01-17T13:27:30.695Z,96971.59
2023-01-17T13:30:16.684Z,96979.16
2023-01-17T13:33:02.426Z,96968.53
2023-01-17T13:35:43.636Z,96963.78
2023-01-17T13:38:29.880Z,96962.03
2023-01-17T13:41:15.720Z,96951.06
2023-01-17T13:44:06.229Z,96952.37
2023-01-17T13:46:52.464Z,96954.41
2023-01-17T13:49:21.085Z,96941.69
2023-01-17T13:52:12.440Z,96946.19
2023-01-17T13:54:43.820Z,96939.91
2023-01-17T13:57:24.448Z,96926.84
2023-01-17T13:59:51.945Z,96927.22
2023-01-17T14:02:31.572Z,96914.31
2023-01-17T14:05:07.938Z,96915.81
2023-01-17T14:07:42.855Z,96897.34
2023-01-17T14:10:36.973Z,96888.31
2023-01-17T14:13:04.747Z,96888.09
2023-01-17T14:15:35.361Z,96881.94
2023-01-17T14:18:03.527Z,96883.53
2023-01-17T14:20:36.188Z,96871.03
2023-01-17T14:23:05.511Z,96879.59
2023-01-17T14:25:38.362Z,96869.91
2023-01-17T14:28:29.751Z,96859.84
2023-01-17T14:30:58.127Z,96857.31
2023-01-17T14:33:27.712Z,96850.94
2023-01-17T14:35:56.969Z,96851.34
2023-01-17T14:38:31.724Z,96841.72
2023-01-17T14:41:01.931Z,96845.22
2023-01-17T14:43:29.755Z,96844.63
2023-01-17T14:46:00.839Z,96845.66
2023-01-17T14:48:28.403Z,96828.88
2023-01-17T14:50:57.421Z,96825.84
2023-01-17T14:53:31.386Z,96821.41
2023-01-17T14:56:02.657Z,96818.41
2023-01-17T14:58:33.214Z,96821.03
2023-01-17T15:01:10.996Z,96828.56
2023-01-17T15:03:44.365Z,96824.66
2023-01-17T15:06:13.048Z,96828.53
2023-01-17T15:08:40.246Z,96830.44
2023-01-17T15:11:12.001Z,96831.97
2023-01-17T15:13:44.687Z,96836.09
2023-01-17T15:16:19.839Z,96835.12
2023-01-17T15:18:47.670Z,96842.16
2023-01-17T15:21:19.527Z,96832.22
2023-01-17T15:23:47.720Z,96817.31
2023-01-17T15:26:15.686Z,96821.78
2023-01-17T15:28:44.812Z,96823.34
2023-01-17T15:31:13.599Z,96817.50
2023-01-17T15:33:42.500Z,96811.38
2023-01-17T15:36:12.756Z,96814.13
2023-01-17T15:38:40.622Z,96819.28
2023-01-17T15:41:12.250Z,96818.94
2023-01-17T15:43:39.640Z,96805.28
2023-01-17T15:46:06.878Z,96809.41
2023-01-17T15:48:41.823Z,96797.66
2023-01-17T15:51:09.439Z,96791.94
2023-01-17T15:53:37.904Z,96796.47
2023-01-17T15:56:37.460Z,96782.03
2023-01-17T15:59:28.375Z,96788.62
2023-01-17T16:01:56.510Z,96775.34
2023-01-17T16:04:28.537Z,96766.88
2023-01-17T16:06:55.753Z,96759.06
2023-01-17T16:09:23.311Z,96773.28
2023-01-17T16:11:50.755Z,96764.09
2023-01-17T16:14:17.917Z,96756.84
2023-01-17T16:16:49.284Z,96756.97
2023-01-17T16:19:16.707Z,96758.47
2023-01-17T16:21:45.157Z,96757.00
2023-01-17T16:24:12.329Z,96755.81
2023-01-17T16:26:39.828Z,96752.69
2023-01-17T16:29:08.215Z,96735.84
2023-01-17T16:31:36.154Z,96741.75
2023-01-17T16:34:09.135Z,96744.47
2023-01-17T16:36:37.273Z,96737.81
2023-01-17T16:39:05.067Z,96736.06
2023-01-17T16:41:32.537Z,96737.41
2023-01-17T16:44:00.993Z,96736.16
2023-01-17T16:46:29.496Z,96725.97
2023-01-17T16:48:56.936Z,96720.59
2023-01-17T16:51:24.125Z,96715.94
2023-01-17T16:53:51.681Z,96712.50
2023-01-17T16:56:19.710Z,96725.63
2023-01-17T16:58:46.996Z,96709.34
2023-01-17T17:01:16.032Z,96725.56
2023-01-17T17:03:43.848Z,96718.09
2023-01-17T17:06:11.409Z,96720.28
2023-01-17T17:08:39.799Z,96718.91
2023-01-17T17:11:17.488Z,96709.37
2023-01-17T17:13:45.651Z,96712.38
2023-01-17T17:16:18.630Z,96705.16
2023-01-17T17:18:48.959Z,96699.19
2023-01-17T17:21:16.329Z,96697.09
2023-01-17T17:23:43.949Z,96690.44
2023-01-17T17:26:11.673Z,96685.25
2023-01-17T17:28:39.005Z,96684.72
2023-01-17T17:31:08.800Z,96670.84
2023-01-17T17:33:37.043Z,96670.22
2023-01-17T17:36:05.568Z,96670.47
2023-01-17T17:38:35.316Z,96663.13
2023-01-17T17:41:07.079Z,96654.87
2023-01-17T17:43:38.687Z,96652.50
2023-01-17T17:46:06.763Z,96644.25
2023-01-17T17:48:34.294Z,96641.25
2023-01-17T17:51:06.464Z,96634.16
2023-01-17T17:53:35.001Z,96617.47
2023-01-17T17:56:03.990Z,96613.22
2023-01-17T17:58:32.629Z,96601.31
2023-01-17T18:01:04.497Z,96586.91
2023-01-17T18:03:32.982Z,96576.84
2023-01-17T18:06:01.301Z,96570.84
2023-01-17T18:08:33.677Z,96559.47
2023-01-17T18:11:02.551Z,96555.41
2023-01-17T18:13:31.177Z,96537.44
2023-01-17T18:16:07.709Z,96544.53
2023-01-17T18:18:37.290Z,96542.72
2023-01-17T18:21:15.232Z,96527.84
2023-01-17T18:23:44.932Z,96524.19
2023-01-17T18:26:19.594Z,96515.97
2023-01-17T18:28:49.887Z,96506.59
2023-01-17T18:31:17.915Z,96511.91
2023-01-17T18:33:45.616Z,96505.09
2023-01-17T18:36:14.243Z,96504.78
2023-01-17T18:38:44.975Z,96502.03
2023-01-17T18:41:14.615Z,96495.72
2023-01-17T18:43:43.687Z,96486.97
2023-01-17T18:46:12.707Z,96487.81
2023-01-17T18:48:42.642Z,96482.59
2023-01-17T18:51:11.882Z,96474.31
2023-01-17T18:53:40.149Z,96463.50
2023-01-17T18:56:09.085Z,96456.84
2023-01-17T18:58:41.251Z,96458.06
2023-01-17T19:01:11.752Z,96450.66
2023-01-17T19:03:41.957Z,96444.44
2023-01-17T19:06:13.347Z,96429.03
2023-01-17T19:08:42.289Z,96431.84
2023-01-17T19:11:11.532Z,96429.28
2023-01-17T19:13:45.600Z,96424.03
2023-01-17T19:16:15.877Z,96417.09
2023-01-17T19:18:44.274Z,96407.06
2023-01-17T19:21:14.715Z,96400.84
2023-01-17T19:23:46.449Z,96396.28
2023-01-17T19:26:20.529Z,96389.75
2023-01-17T19:28:49.736Z,96393.31
2023-01-17T19:31:19.169Z,96375.47
2023-01-17T19:33:48.004Z,96366.16
2023-01-17T19:36:18.843Z,96355.56
2023-01-17T19:39:02.893Z,96349.78
2023-01-17T19:41:35.158Z,96338.00
2023-01-17T19:44:05.119Z,96324.09
2023-01-17T19:46:34.157Z,96326.38
2023-01-17T19:49:02.473Z,96306.19
2023-01-17T19:51:30.531Z,96302.41
2023-01-17T19:54:01.662Z,96307.00
2023-01-17T19:56:30.256Z,96296.00
2023-01-17T19:59:01.994Z,96287.94
2023-01-17T20:01:31.531Z,96298.28
2023-01-17T20:04:01.336Z,96295.16
2023-01-17T20:06:30.693Z,96290.63
2023-01-17T20:08:58.773Z,96302.28
2023-01-17T20:11:27.743Z,96301.88
2023-01-17T20:13:56.818Z,96307.03
2023-01-17T20:16:27.763Z,96283.53
2023-01-17T20:18:57.490Z,96302.06
2023-01-17T20:21:26.521Z,96301.12
2023-01-17T20:23:54.852Z,96306.13
2023-01-17T20:26:24.776Z,96315.12
2023-01-17T20:28:53.824Z,96289.16
2023-01-17T20:31:22.292Z,96286.91
2023-01-17T20:33:51.261Z,96278.16
2023-01-17T20:36:19.743Z,96281.59
2023-01-17T20:38:49.113Z,96297.97
2023-01-17T20:41:18.106Z,96288.25
2023-01-17T20:43:47.688Z,96297.59
2023-01-17T20:46:15.779Z,96285.12
2023-01-17T20:48:45.064Z,96272.63
2023-01-17T20:51:13.606Z,96259.53
2023-01-17T20:53:42.074Z,96239.09
2023-01-17T20:56:13.185Z,96233.84
2023-01-17T20:58:41.475Z,96231.47
2023-01-17T21:01:09.575Z,96229.69
2023-01-17T21:03:41.271Z,96216.94
2023-01-17T21:06:10.830Z,96205.50
2023-01-17T21:08:40.862Z,96200.97
2023-01-17T21:11:09.049Z,96189.25
2023-01-17T21:13:36.544Z,96195.38
2023-01-17T21:16:04.305Z,96196.28
2023-01-17T21:18:32.038Z,96192.09
2023-01-17T21:21:03.194Z,96193.50
2023-01-17T21:23:31.181Z,96184.00
2023-01-17T21:25:58.664Z,96182.16
2023-01-17T21:28:27.279Z,96183.16
2023-01-17T21:30:55.237Z,96175.31
2023-01-17T21:33:23.241Z,96167.59
2023-01-17T21:35:50.582Z,96162.44
2023-01-17T21:38:18.351Z,96157.13
2023-01-17T21:40:45.830Z,96156.50
2023-01-17T21:43:13.473Z,96151.50
2023-01-17T21:45:41.595Z,96169.72
2023-01-17T21:48:12.246Z,96161.13
2023-01-17T21:50:39.749Z,96162.19
2023-01-17T21:53:07.747Z,96166.25
2023-01-17T21:55:53.668Z,96154.78
2023-01-17T21:58:39.987Z,96162.44
2023-01-17T22:01:25.311Z,96159.91
2023-01-17T22:03:53.813Z,96158.50
2023-01-17T22:06:21.749Z,96153.78
2023-01-17T22:08:48.930Z,96148.00
2023-01-17T22:11:17.456Z,96143.87
2023-01-17T22:13:44.932Z,96134.97
2023-01-17T22:16:16.351Z,96127.22
2023-01-17T22:18:44.487Z,96134.72
2023-01-17T22:21:16.666Z,96119.50
2023-01-17T22:23:48.966Z,96114.41
2023-01-17T22:26:16.239Z,96102.31
2023-01-17T22:28:43.949Z,96119.91
2023-01-17T22:31:16.331Z,96130.88
2023-01-17T22:33:44.625Z,96127.88
2023-01-17T22:36:13.764Z,96133.41
2023-01-17T22:38:41.622Z,96138.81
2023-01-17T22:41:13.149Z,96156.47
2023-01-17T22:43:41.310Z,96153.13
2023-01-17T22:46:10.079Z,96146.44
2023-01-17T22:48:37.512Z,96145.31
2023-01-17T22:51:05.949Z,96139.44
2023-01-17T22:53:33.398Z,96139.97
2023-01-17T22:56:07.292Z,96146.09
2023-01-17T22:58:34.832Z,96140.72
2023-01-17T23:01:08.570Z,96147.50
2023-01-17T23:03:36.244Z,96148.78
2023-01-17T23:06:09.607Z,96171.00
2023-01-17T23:08:37.251Z,96168.63
2023-01-17T23:11:27.065Z,96164.81
2023-01-17T23:13:54.501Z,96166.03
2023-01-17T23:16:41.331Z,96179.97
2023-01-17T23:19:23.931Z,96192.44
2023-01-17T23:22:10.809Z,96188.47
2023-01-17T23:24:43.293Z,96184.31
2023-01-17T23:27:35.666Z,96185.62
2023-01-17T23:30:08.192Z,96186.31
2023-01-17T23:32:35.538Z,96188.06
2023-01-17T23:35:03.118Z,96191.44
2023-01-17T23:37:50.472Z,96187.12
2023-01-17T23:40:19.059Z,96172.16
2023-01-17T23:43:05.119Z,96178.03
2023-01-17T23:45:36.284Z,96164.56
2023-01-17T23:48:05.632Z,96175.63
2023-01-17T23:50:33.132Z,96185.22
2023-01-17T23:53:00.489Z,96185.22
2023-01-17T23:55:27.699Z,96191.09
2023-01-17T23:57:56.041Z,96205.28
